Albertson, North Carolina
Current Conditions -  °F | °C
As of 7:15 AM on Monday 26 Jan 2015 (Local Time) from KDPL Reporting Station
Haze Haze  
Wind Chill: 36°   Ceiling: 8000
Heat Index: 36°   Visibility: 5mi
Dew Point: 36°   Wind: 0mph
Humidity: 100%   Direction: NA
Pressure: 29.69"   Gusts: NA
Location:  35.11°N, 77.82°W
Report Text: KDPL 261215Z AUTO 00000KT 5SM BR SCT060 SCT070 BKN080 02/02 A2969 RMK AO2 T00220022
Loading
Personal Weather Stations






























Interactive Weather Map New forecast layout! Learn more

10-Day Weather Forecast

Advertisements
Track Severe Weather on mobile